Time;durP1;ratioP1;P1;durP2;ratioP2;P2;SDS_P1;SDS_P2;PMS_P1;PMS_P2;Temp;Humidity;BMP_temperature;BMP_pressure;BME280_temperature;BME280_humidity;BME280_pressure;Samples;Min_cycle;Max_cycle;Signal;HPM_P1;HPM_P2
2021/01/06 00:01:12;;;;;;;;;;;6.50;77.70;;;;;;4777723;29;118412;-83
2021/01/06 00:04:17;;;;;;;;;;;;;;;;;;;;;
2021/01/06 00:06:58;;;;;;;;;;;6.50;77.60;;;;;;4827403;29;147533;-83
2021/01/06 00:10:10;;;;;;;;;;;;;;;;;;;;;
2021/01/06 00:15:58;;;;;;;;;;;6.50;77.60;;;;;;4917308;28;119565;-83
2021/01/06 00:18:37;;;;;;;;;;;6.50;77.60;;;;;;4927781;28;120679;-83
2021/01/06 00:21:41;;;;;;;;;;;6.50;77.60;;;;;;4944432;28;117922;-84
2021/01/06 00:36:33;;;;;;;;;;;6.50;77.60;;;;;;4895214;28;116883;-84
2021/01/06 00:43:57;;;;;;;;;;;;;;;;;;;;;
2021/01/06 00:46:14;;;;;;;;;;;6.50;77.40;;;;;;4893165;28;117805;-83
2021/01/06 00:48:58;;;;;;;;;;;;;;;;;;;;;
2021/01/06 00:51:57;;;;;;;;;;;;;;;;;;;;;
2021/01/06 00:54:51;;;;;;;;;;;6.50;77.40;;;;;;4886845;28;146714;-83
2021/01/06 00:57:56;;;;;;;;;;;;;;;;;;;;;
2021/01/06 01:04:07;;;;;;;;;;;6.50;77.50;;;;;;4788638;29;117840;-83
2021/01/06 01:10:26;;;;;;;;;;;6.50;77.40;;;;;;4797485;29;118915;-84
2021/01/06 01:16:03;;;;;;;;;;;6.50;77.40;;;;;;4846552;28;119578;-83
2021/01/06 01:18:49;;;;;;;;;;;6.50;77.50;;;;;;4868889;28;118470;-83
2021/01/06 01:28:19;;;;;;;;;;;6.50;77.40;;;;;;4905596;28;117751;-83
2021/01/06 01:43:45;;;;;;;;;;;6.50;77.30;;;;;;4808850;29;118729;-84
2021/01/06 01:46:50;;;;;;;;;;;;;;;;;;;;;
2021/01/06 01:49:40;;;;;;;;;;;;;;;;;;;;;
2021/01/06 01:52:47;;;;;;;;;;;6.50;77.40;;;;;;4906053;28;117513;-83
2021/01/06 02:04:53;;;;;;;;;;;6.50;77.30;;;;;;4887792;28;117456;-83
2021/01/06 02:10:50;;;;;;;;;;;6.50;77.20;;;;;;4829008;29;117938;-83
2021/01/06 02:13:50;;;;;;;;;;;6.50;77.30;;;;;;4817073;29;117727;-84
2021/01/06 02:20:14;;;;;;;;;;;;;;;;;;;;;
2021/01/06 02:23:10;;;;;;;;;;;;;;;;;;;;;
2021/01/06 02:28:55;;;;;;;;;;;;;;;;;;;;;
2021/01/06 02:34:36;;;;;;;;;;;6.50;77.20;;;;;;4867183;28;117741;-84
2021/01/06 02:37:33;;;;;;;;;;;6.50;77.10;;;;;;4867845;28;117620;-83
2021/01/06 02:40:42;;;;;;;;;;;6.50;77.10;;;;;;4852212;28;117898;-84
2021/01/06 02:46:32;;;;;;;;;;;;;;;;;;;;;
2021/01/06 02:49:53;;;;;;;;;;;6.50;77.10;;;;;;4834872;29;120744;-84
2021/01/06 02:52:41;;;;;;;;;;;;;;;;;;;;;
2021/01/06 02:55:41;;;;;;;;;;;6.50;77.10;;;;;;4810637;29;147585;-83
2021/01/06 03:04:37;;;;;;;;;;;6.50;77.00;;;;;;4796129;29;118009;-84
2021/01/06 03:07:37;;;;;;;;;;;6.50;77.10;;;;;;4791829;29;121023;-83
2021/01/06 03:13:37;;;;;;;;;;;;;;;;;;;;;
2021/01/06 03:16:38;;;;;;;;;;;6.50;77.00;;;;;;4774377;29;118731;-83
2021/01/06 03:22:31;;;;;;;;;;;6.50;77.00;;;;;;4751125;29;117927;-83
2021/01/06 03:25:40;;;;;;;;;;;6.50;77.00;;;;;;4777776;29;117467;-83
2021/01/06 03:28:16;;;;;;;;;;;6.50;77.00;;;;;;4775105;29;117794;-83
2021/01/06 03:31:08;;;;;;;;;;;;;;;;;;;;;
2021/01/06 03:34:16;;;;;;;;;;;;;;;;;;;;;
2021/01/06 03:37:21;;;;;;;;;;;;;;;;;;;;;
2021/01/06 03:40:19;;;;;;;;;;;;;;;;;;;;;
2021/01/06 03:42:53;;;;;;;;;;;6.50;76.90;;;;;;4855898;28;146515;-83
2021/01/06 03:45:48;;;;;;;;;;;6.50;76.90;;;;;;4844375;28;119380;-83
2021/01/06 03:49:33;;;;;;;;;;;6.50;76.90;;;;;;4867164;28;117829;-83
2021/01/06 03:52:11;;;;;;;;;;;6.50;76.90;;;;;;4862611;28;117557;-84
2021/01/06 04:04:43;;;;;;;;;;;6.50;77.00;;;;;;4844310;28;117480;-83
2021/01/06 04:13:57;;;;;;;;;;;6.50;77.00;;;;;;4930247;28;117549;-83
2021/01/06 04:16:59;;;;;;;;;;;6.50;76.90;;;;;;4909354;28;117752;-83
2021/01/06 04:20:02;;;;;;;;;;;;;;;;;;;;;
2021/01/06 04:22:50;;;;;;;;;;;6.50;77.50;;;;;;4946981;28;145397;-83
2021/01/06 04:26:20;;;;;;;;;;;;;;;;;;;;;
2021/01/06 04:32:31;;;;;;;;;;;6.50;76.80;;;;;;4948488;28;118667;-84
2021/01/06 04:35:10;;;;;;;;;;;6.50;76.80;;;;;;4942313;28;118334;-84
2021/01/06 04:41:25;;;;;;;;;;;6.50;76.80;;;;;;4889006;28;117474;-83
2021/01/06 04:44:12;;;;;;;;;;;6.50;76.80;;;;;;4870794;28;117824;-83
2021/01/06 04:46:50;;;;;;;;;;;6.50;76.80;;;;;;4871477;28;118165;-83
2021/01/06 04:49:38;;;;;;;;;;;6.50;76.80;;;;;;4872458;28;117605;-84
2021/01/06 04:52:33;;;;;;;;;;;6.50;76.80;;;;;;4866693;28;117661;-84
2021/01/06 04:55:10;;;;;;;;;;;6.50;76.80;;;;;;4873776;28;118883;-84
2021/01/06 04:58:13;;;;;;;;;;;6.50;76.80;;;;;;4871048;28;118187;-84
2021/01/06 05:00:49;;;;;;;;;;;;;;;;;;;;;
2021/01/06 05:06:40;;;;;;;;;;;6.50;76.70;;;;;;4833694;29;118154;-84
2021/01/06 05:09:33;;;;;;;;;;;6.50;76.80;;;;;;4849443;28;118145;-84
2021/01/06 05:12:27;;;;;;;;;;;6.50;76.80;;;;;;4870931;28;117733;-84
2021/01/06 05:14:56;;;;;;;;;;;6.50;76.70;;;;;;4895117;28;117619;-84
2021/01/06 05:17:42;;;;;;;;;;;6.50;76.80;;;;;;4930434;28;119936;-84
2021/01/06 05:20:26;;;;;;;;;;;6.50;76.80;;;;;;4932088;28;120112;-84
2021/01/06 05:26:03;;;;;;;;;;;6.50;76.70;;;;;;4933012;28;117916;-84
2021/01/06 05:29:34;;;;;;;;;;;6.50;76.80;;;;;;4929245;28;120811;-82
2021/01/06 05:31:42;;;;;;;;;;;6.40;76.60;;;;;;4939730;28;117517;-84
2021/01/06 05:35:00;;;;;;;;;;;6.50;76.70;;;;;;4930654;28;117811;-84
2021/01/06 05:37:13;;;;;;;;;;;6.50;76.80;;;;;;4940439;28;117328;-84
2021/01/06 05:39:38;;;;;;;;;;;6.50;76.80;;;;;;4924762;28;120604;-84
2021/01/06 05:42:27;;;;;;;;;;;6.50;76.80;;;;;;4928903;28;118345;-84
2021/01/06 05:45:12;;;;;;;;;;;6.50;76.80;;;;;;4946285;28;117280;-84
2021/01/06 05:48:17;;;;;;;;;;;6.50;76.70;;;;;;4947116;28;117354;-84
2021/01/06 05:51:05;;;;;;;;;;;6.50;76.70;;;;;;4946269;28;118689;-84
2021/01/06 05:53:45;;;;;;;;;;;6.50;76.80;;;;;;4938337;28;120184;-84
2021/01/06 05:56:33;;;;;;;;;;;6.50;76.70;;;;;;4946510;28;117419;-84
2021/01/06 05:59:24;;;;;;;;;;;6.50;76.80;;;;;;4946434;28;117825;-83
2021/01/06 06:02:21;;;;;;;;;;;6.40;76.70;;;;;;4940462;28;119679;-84
2021/01/06 06:05:17;;;;;;;;;;;;;;;;;;;;;
2021/01/06 06:08:10;;;;;;;;;;;6.50;77.30;;;;;;4947028;28;120505;-84
2021/01/06 06:10:58;;;;;;;;;;;6.50;76.70;;;;;;4942842;28;118931;-84
2021/01/06 06:13:44;;;;;;;;;;;6.50;76.70;;;;;;4945412;28;118803;-84
2021/01/06 06:16:32;;;;;;;;;;;6.50;76.70;;;;;;4945631;28;118760;-84
2021/01/06 06:19:15;;;;;;;;;;;6.50;76.70;;;;;;4947469;28;117438;-84
2021/01/06 06:21:58;;;;;;;;;;;6.40;76.70;;;;;;4931196;28;117508;-84
2021/01/06 06:24:24;;;;;;;;;;;6.50;76.70;;;;;;4944330;28;118465;-84
2021/01/06 06:27:13;;;;;;;;;;;6.50;76.70;;;;;;4945194;28;118049;-84
2021/01/06 06:29:49;;;;;;;;;;;6.50;76.70;;;;;;4926283;28;117955;-84
2021/01/06 06:32:15;;;;;;;;;;;6.50;76.60;;;;;;4930749;28;117862;-84
2021/01/06 06:34:41;;;;;;;;;;;6.50;76.70;;;;;;4929026;28;118333;-84
2021/01/06 06:37:09;;;;;;;;;;;6.50;76.60;;;;;;4945669;28;117348;-84
2021/01/06 06:39:55;;;;;;;;;;;6.50;76.70;;;;;;4946181;28;118824;-84
2021/01/06 06:42:25;;;;;;;;;;;6.50;76.60;;;;;;4944858;28;117462;-84
2021/01/06 06:44:58;;;;;;;;;;;6.40;76.60;;;;;;4945104;28;119148;-84
2021/01/06 06:47:45;;;;;;;;;;;6.50;76.70;;;;;;4929174;28;118653;-84
2021/01/06 06:50:31;;;;;;;;;;;6.50;76.70;;;;;;4948094;28;117230;-84
2021/01/06 06:53:15;;;;;;;;;;;6.50;76.70;;;;;;4947480;28;117394;-83
2021/01/06 06:55:44;;;;;;;;;;;6.50;76.70;;;;;;4929167;28;118743;-83
2021/01/06 06:58:28;;;;;;;;;;;6.40;76.60;;;;;;4944905;28;117613;-83
2021/01/06 07:00:54;;;;;;;;;;;6.50;76.60;;;;;;4946252;28;117355;-83
2021/01/06 07:03:26;;;;;;;;;;;6.40;76.60;;;;;;4930381;28;117881;-83
2021/01/06 07:05:55;;;;;;;;;;;6.40;76.60;;;;;;4929104;28;119425;-83
2021/01/06 07:08:29;;;;;;;;;;;6.50;76.60;;;;;;4929067;28;119429;-83
2021/01/06 07:11:05;;;;;;;;;;;6.40;76.60;;;;;;4929449;28;117699;-83
2021/01/06 07:13:33;;;;;;;;;;;6.50;76.70;;;;;;4929572;28;117834;-83
2021/01/06 07:16:02;;;;;;;;;;;6.50;76.60;;;;;;4928866;28;117963;-83
2021/01/06 07:18:36;;;;;;;;;;;6.50;76.60;;;;;;4928659;28;118295;-83
2021/01/06 07:21:11;;;;;;;;;;;6.40;76.60;;;;;;4945427;28;117473;-84
2021/01/06 07:24:37;;;;;;;;;;;6.40;76.60;;;;;;4947364;28;117657;-84
2021/01/06 07:26:45;;;;;;;;;;;6.50;76.60;;;;;;4937317;28;118295;-84
2021/01/06 07:29:12;;;;;;;;;;;6.40;76.70;;;;;;4944267;28;117716;-84
2021/01/06 07:31:43;;;;;;;;;;;6.50;76.70;;;;;;4929270;28;117555;-84
2021/01/06 07:34:22;;;;;;;;;;;6.50;76.60;;;;;;4945840;28;117331;-84
2021/01/06 07:36:49;;;;;;;;;;;6.40;76.50;;;;;;4929034;28;117715;-84
2021/01/06 07:39:28;;;;;;;;;;;6.40;76.60;;;;;;4927642;28;118007;-83
2021/01/06 07:41:54;;;;;;;;;;;6.50;76.60;;;;;;4945047;28;117486;-83
2021/01/06 07:44:21;;;;;;;;;;;6.50;76.60;;;;;;4929583;28;117809;-84
2021/01/06 07:47:02;;;;;;;;;;;6.40;76.60;;;;;;4928594;28;117622;-84
2021/01/06 07:49:32;;;;;;;;;;;6.40;76.60;;;;;;4944917;28;117520;-83
2021/01/06 07:52:05;;;;;;;;;;;6.40;76.60;;;;;;4929416;28;117524;-83
2021/01/06 07:54:39;;;;;;;;;;;6.40;76.60;;;;;;4930047;28;117788;-83
2021/01/06 07:57:05;;;;;;;;;;;6.40;76.60;;;;;;4929036;28;120521;-83
2021/01/06 07:59:45;;;;;;;;;;;6.40;76.60;;;;;;4944683;28;117714;-83
2021/01/06 08:02:17;;;;;;;;;;;6.40;76.60;;;;;;4929404;28;117495;-83
2021/01/06 08:04:54;;;;;;;;;;;6.40;76.70;;;;;;4930040;28;117784;-83
2021/01/06 08:07:23;;;;;;;;;;;6.40;76.60;;;;;;4946416;28;118756;-83
2021/01/06 08:09:48;;;;;;;;;;;6.40;76.60;;;;;;4943738;28;117695;-83
2021/01/06 08:12:17;;;;;;;;;;;6.50;76.60;;;;;;4928765;28;117433;-83
2021/01/06 08:14:42;;;;;;;;;;;6.40;76.70;;;;;;4946282;28;117360;-83
2021/01/06 08:17:32;;;;;;;;;;;6.40;76.60;;;;;;4927728;28;119600;-83
2021/01/06 08:20:03;;;;;;;;;;;6.40;76.50;;;;;;4927821;28;118898;-84
2021/01/06 08:22:39;;;;;;;;;;;6.40;76.60;;;;;;4928577;28;117495;-83
2021/01/06 08:25:05;;;;;;;;;;;6.40;76.50;;;;;;4945463;28;117761;-83
2021/01/06 08:27:40;;;;;;;;;;;6.40;76.60;;;;;;4943623;28;117651;-83
2021/01/06 08:30:15;;;;;;;;;;;6.40;76.60;;;;;;4927992;28;120033;-83
2021/01/06 08:32:41;;;;;;;;;;;6.40;76.50;;;;;;4945045;28;117383;-83
2021/01/06 08:35:09;;;;;;;;;;;6.40;76.70;;;;;;4928806;28;117329;-83
2021/01/06 08:37:36;;;;;;;;;;;6.40;76.50;;;;;;4944116;28;117501;-83
2021/01/06 08:40:03;;;;;;;;;;;6.40;76.50;;;;;;4943977;28;117835;-83
2021/01/06 08:42:38;;;;;;;;;;;6.40;76.50;;;;;;4928374;28;117557;-83
2021/01/06 08:45:06;;;;;;;;;;;6.40;76.50;;;;;;4944817;28;117933;-83
2021/01/06 08:47:38;;;;;;;;;;;6.40;76.60;;;;;;4929211;28;117956;-83
2021/01/06 08:50:16;;;;;;;;;;;6.40;76.60;;;;;;4930708;28;117977;-84
2021/01/06 08:52:42;;;;;;;;;;;6.40;76.60;;;;;;4948224;28;117374;-83
2021/01/06 08:55:17;;;;;;;;;;;6.40;76.60;;;;;;4931678;28;117390;-83
2021/01/06 08:57:46;;;;;;;;;;;6.40;76.60;;;;;;4947146;28;117804;-83
2021/01/06 09:00:21;;;;;;;;;;;6.40;76.50;;;;;;4931295;28;117686;-83
2021/01/06 09:02:53;;;;;;;;;;;6.40;76.70;;;;;;4948471;28;117846;-83
2021/01/06 09:05:34;;;;;;;;;;;6.40;76.60;;;;;;4932481;28;117293;-83
2021/01/06 09:08:00;;;;;;;;;;;6.40;76.60;;;;;;4946914;28;118943;-83
2021/01/06 09:10:35;;;;;;;;;;;6.40;76.60;;;;;;4930630;28;118911;-84
2021/01/06 09:13:07;;;;;;;;;;;6.40;76.60;;;;;;4932262;28;117557;-83
2021/01/06 09:15:50;;;;;;;;;;;6.40;77.20;;;;;;4931649;28;117583;-83
2021/01/06 09:18:24;;;;;;;;;;;6.40;76.60;;;;;;4931267;28;117847;-83
2021/01/06 09:20:53;;;;;;;;;;;6.40;76.60;;;;;;4947135;28;117366;-83
2021/01/06 09:23:25;;;;;;;;;;;6.40;76.60;;;;;;4948912;28;117477;-83
2021/01/06 09:25:54;;;;;;;;;;;6.40;76.60;;;;;;4932866;28;117508;-83
2021/01/06 09:28:19;;;;;;;;;;;6.40;76.70;;;;;;4930612;28;119103;-83
2021/01/06 09:30:45;;;;;;;;;;;6.40;76.60;;;;;;4929717;28;118242;-84
2021/01/06 09:33:14;;;;;;;;;;;6.40;76.60;;;;;;4931235;28;117469;-84
2021/01/06 09:35:40;;;;;;;;;;;6.40;76.60;;;;;;4931853;28;117215;-84
2021/01/06 09:38:32;;;;;;;;;;;6.40;77.20;;;;;;4930326;28;118718;-84
2021/01/06 09:41:02;;;;;;;;;;;6.40;76.60;;;;;;4927679;28;118289;-84
2021/01/06 09:43:36;;;;;;;;;;;6.40;76.60;;;;;;4930777;28;117482;-84
2021/01/06 09:46:04;;;;;;;;;;;6.40;77.20;;;;;;4931152;28;117808;-84
2021/01/06 09:48:32;;;;;;;;;;;6.40;76.60;;;;;;4930570;28;121082;-84
2021/01/06 09:50:59;;;;;;;;;;;6.40;76.60;;;;;;4929780;28;118395;-83
2021/01/06 09:53:38;;;;;;;;;;;6.40;76.60;;;;;;4930900;28;117510;-83
2021/01/06 09:56:04;;;;;;;;;;;6.40;76.70;;;;;;4932288;28;117612;-83
2021/01/06 09:58:32;;;;;;;;;;;6.40;76.60;;;;;;4946080;28;120890;-83
2021/01/06 10:01:09;;;;;;;;;;;6.40;76.70;;;;;;4929643;28;120262;-83
2021/01/06 10:03:36;;;;;;;;;;;6.40;76.70;;;;;;4931647;28;117745;-83
2021/01/06 10:06:21;;;;;;;;;;;6.40;76.60;;;;;;4931261;28;117872;-83
2021/01/06 10:08:58;;;;;;;;;;;6.40;76.70;;;;;;4946173;28;117743;-83
2021/01/06 10:11:56;;;;;;;;;;;6.40;76.70;;;;;;4929333;28;117771;-83
2021/01/06 10:14:40;;;;;;;;;;;6.40;76.60;;;;;;4938443;28;117696;-83
2021/01/06 10:17:29;;;;;;;;;;;6.40;76.60;;;;;;4947232;28;117545;-83
2021/01/06 10:20:09;;;;;;;;;;;6.40;76.70;;;;;;4940237;28;120098;-83
2021/01/06 10:22:49;;;;;;;;;;;6.40;76.70;;;;;;4946652;28;117478;-83
2021/01/06 10:25:26;;;;;;;;;;;6.40;77.30;;;;;;4931206;28;117500;-83
2021/01/06 10:28:00;;;;;;;;;;;6.40;76.70;;;;;;4949048;28;117497;-83
2021/01/06 10:30:29;;;;;;;;;;;6.40;76.70;;;;;;4930004;28;118615;-83
2021/01/06 10:33:09;;;;;;;;;;;6.40;76.70;;;;;;4930368;28;117567;-83
2021/01/06 10:35:40;;;;;;;;;;;6.40;76.70;;;;;;4930887;28;117363;-83
2021/01/06 10:38:25;;;;;;;;;;;6.40;76.60;;;;;;4930586;28;117415;-83
2021/01/06 10:40:55;;;;;;;;;;;6.40;76.70;;;;;;4930323;28;119133;-83
2021/01/06 10:43:30;;;;;;;;;;;6.40;76.70;;;;;;4929039;28;118837;-83
2021/01/06 10:45:55;;;;;;;;;;;6.40;77.30;;;;;;4946150;28;117604;-83
2021/01/06 10:48:50;;;;;;;;;;;6.40;76.70;;;;;;4930159;28;117544;-83
2021/01/06 10:51:34;;;;;;;;;;;6.40;76.70;;;;;;4943451;28;118783;-84
2021/01/06 10:54:00;;;;;;;;;;;6.40;76.60;;;;;;4944886;28;119766;-84
2021/01/06 10:56:27;;;;;;;;;;;6.40;76.70;;;;;;4946251;28;117467;-84
2021/01/06 10:58:58;;;;;;;;;;;6.40;76.70;;;;;;4929766;28;117840;-84
2021/01/06 11:01:27;;;;;;;;;;;6.40;76.80;;;;;;4928829;28;119177;-83
2021/01/06 11:03:59;;;;;;;;;;;6.40;76.70;;;;;;4944238;28;117645;-83
2021/01/06 11:06:29;;;;;;;;;;;6.40;76.70;;;;;;4947408;28;117274;-83
2021/01/06 11:09:23;;;;;;;;;;;6.40;76.70;;;;;;4929739;28;117927;-83
2021/01/06 11:12:08;;;;;;;;;;;6.40;76.80;;;;;;4929252;28;118842;-83
2021/01/06 11:14:53;;;;;;;;;;;6.40;76.70;;;;;;4945108;28;118720;-83
2021/01/06 11:17:35;;;;;;;;;;;6.40;76.70;;;;;;4945850;28;117541;-83
2021/01/06 11:20:25;;;;;;;;;;;6.40;76.80;;;;;;4929850;28;117767;-84
2021/01/06 11:23:12;;;;;;;;;;;6.40;76.80;;;;;;4945429;28;120459;-84
2021/01/06 11:25:49;;;;;;;;;;;6.40;76.80;;;;;;4944718;28;117788;-83
2021/01/06 11:28:41;;;;;;;;;;;6.40;76.80;;;;;;4926627;28;117867;-83
2021/01/06 11:31:19;;;;;;;;;;;6.40;76.80;;;;;;4945713;28;117480;-83
2021/01/06 11:33:52;;;;;;;;;;;6.40;76.80;;;;;;4945407;28;119816;-83
2021/01/06 11:36:40;;;;;;;;;;;6.40;76.70;;;;;;4928868;28;117321;-83
2021/01/06 11:39:09;;;;;;;;;;;6.40;76.70;;;;;;4946294;28;117269;-83
2021/01/06 11:41:37;;;;;;;;;;;6.40;76.80;;;;;;4930972;28;117800;-83
2021/01/06 11:44:20;;;;;;;;;;;6.40;76.80;;;;;;4946081;28;120122;-83
2021/01/06 11:47:00;;;;;;;;;;;6.40;76.80;;;;;;4930063;28;118073;-83
2021/01/06 11:49:29;;;;;;;;;;;6.40;76.80;;;;;;4947772;28;117443;-83
2021/01/06 11:52:07;;;;;;;;;;;6.40;76.80;;;;;;4930790;28;117847;-83
2021/01/06 11:54:34;;;;;;;;;;;6.40;76.80;;;;;;4947825;28;118500;-83
2021/01/06 11:57:53;;;;;;;;;;;6.40;76.80;;;;;;4949590;28;117744;-83
2021/01/06 12:00:25;;;;;;;;;;;6.40;77.00;;;;;;4929869;28;118060;-83
2021/01/06 12:02:56;;;;;;;;;;;6.40;76.80;;;;;;4947841;28;117533;-82
2021/01/06 12:05:24;;;;;;;;;;;6.40;76.80;;;;;;4930972;28;119315;-82
2021/01/06 12:07:50;;;;;;;;;;;6.40;76.80;;;;;;4946962;28;119936;-82
2021/01/06 12:10:25;;;;;;;;;;;6.40;76.80;;;;;;4947843;28;117664;-82
2021/01/06 12:13:06;;;;;;;;;;;6.40;77.40;;;;;;4932790;28;117362;-82
2021/01/06 12:15:40;;;;;;;;;;;6.40;76.80;;;;;;4947733;28;118649;-82
2021/01/06 12:18:32;;;;;;;;;;;6.40;76.80;;;;;;4945962;28;120018;-83
2021/01/06 12:21:03;;;;;;;;;;;6.40;76.80;;;;;;4946476;28;117991;-83
2021/01/06 12:23:47;;;;;;;;;;;6.40;76.80;;;;;;4949523;28;117807;-83
2021/01/06 12:26:40;;;;;;;;;;;6.40;76.80;;;;;;4933636;28;118740;-83
2021/01/06 12:29:31;;;;;;;;;;;6.40;76.90;;;;;;4949112;28;119770;-83
2021/01/06 12:32:03;;;;;;;;;;;6.40;76.90;;;;;;4949824;28;117517;-83
2021/01/06 12:34:31;;;;;;;;;;;6.40;76.80;;;;;;4934326;28;117389;-83
2021/01/06 12:54:20;;;;;;;;;;;6.40;76.90;;;;;;4968447;28;117788;-83
2021/01/06 12:57:08;;;;;;;;;;;6.40;76.90;;;;;;4952505;28;118731;-83
2021/01/06 13:00:27;;;;;;;;;;;6.40;76.90;;;;;;4931327;28;118395;-83
2021/01/06 13:02:52;;;;;;;;;;;6.40;76.90;;;;;;4949438;28;117928;-83
2021/01/06 13:05:39;;;;;;;;;;;6.40;76.90;;;;;;4952086;28;117492;-83
2021/01/06 13:08:19;;;;;;;;;;;6.40;76.90;;;;;;4938131;28;117901;-83
2021/01/06 13:10:50;;;;;;;;;;;6.40;76.90;;;;;;4936067;28;117788;-82
2021/01/06 13:16:41;;;;;;;;;;;6.40;76.90;;;;;;4933643;28;117472;-83
2021/01/06 13:19:13;;;;;;;;;;;6.40;76.90;;;;;;4941815;28;118170;-83
2021/01/06 13:21:44;;;;;;;;;;;6.40;77.00;;;;;;4966482;28;117934;-83
2021/01/06 13:24:20;;;;;;;;;;;6.40;77.00;;;;;;4950841;28;117960;-83
2021/01/06 13:27:03;;;;;;;;;;;6.40;76.90;;;;;;4935249;28;117978;-83
2021/01/06 13:29:56;;;;;;;;;;;6.40;77.00;;;;;;4935769;28;117628;-83
2021/01/06 13:32:40;;;;;;;;;;;6.40;77.00;;;;;;4934121;28;120680;-83
2021/01/06 13:35:15;;;;;;;;;;;6.40;76.90;;;;;;4966435;28;120306;-83
2021/01/06 13:37:48;;;;;;;;;;;6.40;77.00;;;;;;4935110;28;117566;-83
2021/01/06 13:40:28;;;;;;;;;;;6.40;77.00;;;;;;4935528;28;117494;-83
2021/01/06 13:43:17;;;;;;;;;;;6.40;77.00;;;;;;4933807;28;117552;-83
2021/01/06 13:45:46;;;;;;;;;;;6.40;77.00;;;;;;4949579;28;118258;-83
2021/01/06 13:48:37;;;;;;;;;;;6.40;77.00;;;;;;4966922;28;117621;-83
2021/01/06 13:51:11;;;;;;;;;;;6.40;77.00;;;;;;4936184;28;118048;-83
2021/01/06 13:53:53;;;;;;;;;;;6.40;77.00;;;;;;4931442;28;119511;-83
2021/01/06 13:56:27;;;;;;;;;;;6.40;77.10;;;;;;4934123;28;117991;-83
2021/01/06 13:59:12;;;;;;;;;;;6.40;77.00;;;;;;4934886;28;117552;-83
2021/01/06 14:01:54;;;;;;;;;;;6.40;77.10;;;;;;4952022;28;117319;-83
2021/01/06 14:04:29;;;;;;;;;;;6.40;77.00;;;;;;4934022;28;118341;-83
2021/01/06 14:07:03;;;;;;;;;;;6.40;77.10;;;;;;4934685;28;117756;-83
2021/01/06 14:09:50;;;;;;;;;;;6.40;77.10;;;;;;4966824;28;117371;-83
2021/01/06 14:12:34;;;;;;;;;;;6.40;77.10;;;;;;4967329;28;117929;-83
2021/01/06 14:15:21;;;;;;;;;;;6.40;77.00;;;;;;4934327;28;117695;-83
2021/01/06 14:18:13;;;;;;;;;;;6.40;77.00;;;;;;4973110;28;117268;-83
2021/01/06 14:21:12;;;;;;;;;;;6.40;77.10;;;;;;4971419;28;117573;-83
2021/01/06 14:23:56;;;;;;;;;;;6.40;77.10;;;;;;4877805;28;117502;-83
2021/01/06 14:26:50;;;;;;;;;;;6.40;77.10;;;;;;4972922;28;119686;-83
2021/01/06 14:29:28;;;;;;;;;;;6.40;77.10;;;;;;4950481;28;117357;-82
2021/01/06 14:32:22;;;;;;;;;;;6.40;77.10;;;;;;4967701;28;117367;-82
2021/01/06 14:35:00;;;;;;;;;;;6.40;77.10;;;;;;4968672;28;117310;-82
2021/01/06 14:37:33;;;;;;;;;;;6.40;77.10;;;;;;4965859;28;118886;-82
2021/01/06 14:40:24;;;;;;;;;;;6.40;77.10;;;;;;4935158;28;117515;-82
2021/01/06 14:43:32;;;;;;;;;;;6.40;77.20;;;;;;4948861;28;117909;-82
2021/01/06 14:46:03;;;;;;;;;;;6.40;77.10;;;;;;4954784;28;117368;-82
2021/01/06 14:48:43;;;;;;;;;;;6.40;77.10;;;;;;4968029;28;117636;-82
2021/01/06 14:51:22;;;;;;;;;;;6.40;77.20;;;;;;4932786;28;118169;-82
2021/01/06 14:53:58;;;;;;;;;;;6.40;77.20;;;;;;4934544;28;117481;-82
2021/01/06 14:56:28;;;;;;;;;;;6.40;77.10;;;;;;4937697;28;117607;-83
2021/01/06 14:59:04;;;;;;;;;;;6.40;77.20;;;;;;4931933;28;117741;-87
2021/01/06 15:01:40;;;;;;;;;;;6.40;77.20;;;;;;4931741;28;117543;-87
2021/01/06 15:04:12;;;;;;;;;;;6.40;77.20;;;;;;4932453;28;117788;-87
2021/01/06 15:06:56;;;;;;;;;;;6.40;77.30;;;;;;4964828;28;117297;-87
2021/01/06 15:09:36;;;;;;;;;;;6.40;77.20;;;;;;4964017;28;120306;-87
2021/01/06 15:12:03;;;;;;;;;;;6.40;77.20;;;;;;4963877;28;120268;-87
2021/01/06 15:14:38;;;;;;;;;;;6.40;77.20;;;;;;4932530;28;117541;-87
2021/01/06 15:17:04;;;;;;;;;;;6.40;77.20;;;;;;4932812;28;117792;-87
2021/01/06 15:19:31;;;;;;;;;;;6.40;77.20;;;;;;4930996;28;119658;-87
2021/01/06 15:22:01;;;;;;;;;;;6.40;77.20;;;;;;4931447;28;119545;-87
2021/01/06 15:24:28;;;;;;;;;;;6.40;77.20;;;;;;4932376;28;117441;-87
2021/01/06 15:26:55;;;;;;;;;;;6.40;77.10;;;;;;4932656;28;117930;-87
2021/01/06 15:29:26;;;;;;;;;;;6.40;77.20;;;;;;4930733;28;121270;-87
2021/01/06 15:32:21;;;;;;;;;;;6.40;77.20;;;;;;4930464;28;119230;-87
2021/01/06 15:34:47;;;;;;;;;;;6.40;77.20;;;;;;4931706;28;117548;-84
2021/01/06 15:37:19;;;;;;;;;;;6.40;77.10;;;;;;4935869;28;117901;-84
2021/01/06 15:39:44;;;;;;;;;;;6.40;77.10;;;;;;4933215;28;120617;-84
2021/01/06 15:42:23;;;;;;;;;;;6.40;77.20;;;;;;4933010;28;117478;-84
2021/01/06 15:44:54;;;;;;;;;;;6.40;77.20;;;;;;4933704;28;117547;-83
2021/01/06 15:47:23;;;;;;;;;;;6.40;77.20;;;;;;4933028;28;117446;-84
2021/01/06 15:49:48;;;;;;;;;;;6.40;77.30;;;;;;4931255;28;121785;-84
2021/01/06 15:52:28;;;;;;;;;;;6.40;77.30;;;;;;4931497;28;119609;-84
2021/01/06 15:55:12;;;;;;;;;;;6.40;77.40;;;;;;4932025;28;117384;-84
2021/01/06 15:57:38;;;;;;;;;;;6.40;77.50;;;;;;4964471;28;117375;-84
2021/01/06 16:00:14;;;;;;;;;;;6.40;77.60;;;;;;4931221;28;119642;-84
2021/01/06 16:02:39;;;;;;;;;;;6.40;77.70;;;;;;4931798;28;119603;-84
2021/01/06 16:05:25;;;;;;;;;;;6.50;77.80;;;;;;4932501;28;117334;-84
2021/01/06 16:07:51;;;;;;;;;;;6.50;78.00;;;;;;4948977;28;117860;-84
2021/01/06 16:10:43;;;;;;;;;;;6.50;78.00;;;;;;4930782;28;117513;-84
2021/01/06 16:13:13;;;;;;;;;;;6.50;78.10;;;;;;4943522;28;118856;-84
2021/01/06 16:15:38;;;;;;;;;;;6.50;78.20;;;;;;4932182;28;117563;-84
2021/01/06 16:18:05;;;;;;;;;;;6.50;78.80;;;;;;4932502;28;117528;-84
2021/01/06 16:20:32;;;;;;;;;;;6.50;78.20;;;;;;4930914;28;117665;-84
2021/01/06 16:22:59;;;;;;;;;;;6.50;78.40;;;;;;4930763;28;117423;-84
2021/01/06 16:25:29;;;;;;;;;;;6.50;78.40;;;;;;4948883;28;117534;-84
2021/01/06 16:27:55;;;;;;;;;;;6.50;78.50;;;;;;4932361;28;117887;-84
2021/01/06 16:30:26;;;;;;;;;;;6.50;78.60;;;;;;4931257;28;117646;-84
2021/01/06 16:32:51;;;;;;;;;;;6.50;78.50;;;;;;4931341;28;118737;-84
2021/01/06 16:35:18;;;;;;;;;;;6.50;78.70;;;;;;4964878;28;117517;-84
2021/01/06 16:37:43;;;;;;;;;;;6.50;78.70;;;;;;4932852;28;117392;-84
2021/01/06 16:40:13;;;;;;;;;;;6.50;78.70;;;;;;4932062;28;117880;-84
2021/01/06 16:42:41;;;;;;;;;;;6.50;78.90;;;;;;4964534;28;117613;-84
2021/01/06 16:45:07;;;;;;;;;;;6.50;78.80;;;;;;4932602;28;117464;-84
2021/01/06 16:47:32;;;;;;;;;;;6.50;78.90;;;;;;4932285;28;117810;-84
2021/01/06 16:49:58;;;;;;;;;;;6.50;78.90;;;;;;4931368;28;120584;-84
2021/01/06 16:52:28;;;;;;;;;;;6.60;78.90;;;;;;4931967;28;119591;-84
2021/01/06 16:55:03;;;;;;;;;;;6.50;78.90;;;;;;4932787;28;117457;-84
2021/01/06 16:57:32;;;;;;;;;;;6.50;79.00;;;;;;4933549;28;117918;-84
2021/01/06 16:59:58;;;;;;;;;;;6.60;79.20;;;;;;4948165;28;117518;-84
2021/01/06 17:02:24;;;;;;;;;;;6.60;79.40;;;;;;4930703;28;119316;-85
2021/01/06 17:04:49;;;;;;;;;;;6.60;79.80;;;;;;4931412;28;117434;-85
2021/01/06 17:07:16;;;;;;;;;;;6.50;79.60;;;;;;4931784;28;117749;-85
2021/01/06 17:09:42;;;;;;;;;;;6.60;79.60;;;;;;4933290;28;120163;-84
2021/01/06 17:12:09;;;;;;;;;;;6.60;79.40;;;;;;4933210;28;117267;-84
2021/01/06 17:14:44;;;;;;;;;;;6.50;79.50;;;;;;4951384;28;117444;-84
2021/01/06 17:17:21;;;;;;;;;;;6.50;79.50;;;;;;4935318;28;117335;-84
2021/01/06 17:19:47;;;;;;;;;;;6.50;79.40;;;;;;4933705;28;118764;-85
2021/01/06 17:22:20;;;;;;;;;;;6.50;79.40;;;;;;4933911;28;118654;-84
2021/01/06 17:24:45;;;;;;;;;;;6.60;79.50;;;;;;4934770;28;117555;-84
2021/01/06 17:27:18;;;;;;;;;;;6.60;79.80;;;;;;4934825;28;117603;-84
2021/01/06 17:29:44;;;;;;;;;;;6.60;80.10;;;;;;4933859;28;117501;-84
2021/01/06 17:32:25;;;;;;;;;;;6.50;80.30;;;;;;4933870;28;118188;-84
2021/01/06 17:34:51;;;;;;;;;;;6.60;80.20;;;;;;4951358;28;117669;-84
2021/01/06 17:37:35;;;;;;;;;;;6.60;80.00;;;;;;4966664;28;117891;-84
2021/01/06 17:40:01;;;;;;;;;;;6.60;79.80;;;;;;4965921;28;120261;-84
2021/01/06 17:42:26;;;;;;;;;;;6.60;79.80;;;;;;4933695;28;118603;-84
2021/01/06 17:44:52;;;;;;;;;;;6.60;79.80;;;;;;4935015;28;117572;-84
2021/01/06 17:47:17;;;;;;;;;;;6.60;80.10;;;;;;4935118;28;118205;-84
2021/01/06 17:49:43;;;;;;;;;;;6.60;80.30;;;;;;4950611;28;117574;-84
2021/01/06 17:52:08;;;;;;;;;;;6.50;79.90;;;;;;4933692;28;118468;-84
2021/01/06 17:54:34;;;;;;;;;;;6.60;80.20;;;;;;4951191;28;117615;-84
2021/01/06 17:56:59;;;;;;;;;;;6.60;79.80;;;;;;4951572;28;117758;-84
2021/01/06 17:59:25;;;;;;;;;;;6.50;79.90;;;;;;4933796;28;118448;-84
2021/01/06 18:01:50;;;;;;;;;;;6.50;80.10;;;;;;4933172;28;119943;-84
2021/01/06 18:04:17;;;;;;;;;;;6.50;80.40;;;;;;4934971;28;118108;-84